sensor_id;sensor_type;location;lat;lon;timestamp;temperature;humidity
9116;DHT22;4593;53.652;10.168;2023-03-23T00:01:03;11.40;88.40
9116;DHT22;4593;53.652;10.168;2023-03-23T00:03:29;11.40;88.50
9116;DHT22;4593;53.652;10.168;2023-03-23T00:05:58;11.30;88.90
9116;DHT22;4593;53.652;10.168;2023-03-23T00:08:30;11.30;89.10
9116;DHT22;4593;53.652;10.168;2023-03-23T00:10:56;11.30;89.30
9116;DHT22;4593;53.652;10.168;2023-03-23T00:13:24;11.30;89.70
9116;DHT22;4593;53.652;10.168;2023-03-23T00:15:50;11.30;90.00
9116;DHT22;4593;53.652;10.168;2023-03-23T00:18:20;11.20;90.40
9116;DHT22;4593;53.652;10.168;2023-03-23T00:20:52;11.20;90.70
9116;DHT22;4593;53.652;10.168;2023-03-23T00:23:19;11.20;91.10
9116;DHT22;4593;53.652;10.168;2023-03-23T00:25:51;11.20;91.40
9116;DHT22;4593;53.652;10.168;2023-03-23T00:28:27;11.10;92.00
9116;DHT22;4593;53.652;10.168;2023-03-23T00:31:02;11.10;92.50
9116;DHT22;4593;53.652;10.168;2023-03-23T00:33:30;11.10;92.90
9116;DHT22;4593;53.652;10.168;2023-03-23T00:35:59;11.10;93.00
9116;DHT22;4593;53.652;10.168;2023-03-23T00:38:25;11.10;93.30
9116;DHT22;4593;53.652;10.168;2023-03-23T00:40:50;11.10;93.40
9116;DHT22;4593;53.652;10.168;2023-03-23T00:43:18;11.10;93.50
9116;DHT22;4593;53.652;10.168;2023-03-23T00:45:44;11.10;93.90
9116;DHT22;4593;53.652;10.168;2023-03-23T00:48:14;11.10;93.70
9116;DHT22;4593;53.652;10.168;2023-03-23T00:50:40;11.10;94.00
9116;DHT22;4593;53.652;10.168;2023-03-23T00:53:06;11.10;94.00
9116;DHT22;4593;53.652;10.168;2023-03-23T00:55:32;11.10;93.90
9116;DHT22;4593;53.652;10.168;2023-03-23T00:58:00;11.10;94.10
9116;DHT22;4593;53.652;10.168;2023-03-23T01:00:26;11.10;94.20
9116;DHT22;4593;53.652;10.168;2023-03-23T01:02:53;11.10;94.60
9116;DHT22;4593;53.652;10.168;2023-03-23T01:05:19;11.10;94.40
9116;DHT22;4593;53.652;10.168;2023-03-23T01:07:45;11.00;94.70
9116;DHT22;4593;53.652;10.168;2023-03-23T01:10:12;11.00;94.80
9116;DHT22;4593;53.652;10.168;2023-03-23T01:12:42;11.00;94.70
9116;DHT22;4593;53.652;10.168;2023-03-23T01:15:09;11.00;94.80
9116;DHT22;4593;53.652;10.168;2023-03-23T01:17:38;11.00;95.10
9116;DHT22;4593;53.652;10.168;2023-03-23T01:20:04;10.90;95.10
9116;DHT22;4593;53.652;10.168;2023-03-23T01:22:32;10.90;95.40
9116;DHT22;4593;53.652;10.168;2023-03-23T01:24:58;10.90;95.40
9116;DHT22;4593;53.652;10.168;2023-03-23T01:27:24;10.90;95.30
9116;DHT22;4593;53.652;10.168;2023-03-23T01:29:49;10.90;95.20
9116;DHT22;4593;53.652;10.168;2023-03-23T01:32:15;10.90;95.30
9116;DHT22;4593;53.652;10.168;2023-03-23T01:34:41;10.90;95.50
9116;DHT22;4593;53.652;10.168;2023-03-23T01:37:07;10.90;95.30
9116;DHT22;4593;53.652;10.168;2023-03-23T01:39:33;11.00;95.40
9116;DHT22;4593;53.652;10.168;2023-03-23T01:42:00;11.00;95.40
9116;DHT22;4593;53.652;10.168;2023-03-23T01:46:57;11.00;95.60
9116;DHT22;4593;53.652;10.168;2023-03-23T01:49:44;11.00;95.60
9116;DHT22;4593;53.652;10.168;2023-03-23T01:52:15;11.00;95.50
9116;DHT22;4593;53.652;10.168;2023-03-23T01:54:42;11.00;95.70
9116;DHT22;4593;53.652;10.168;2023-03-23T01:57:15;11.00;95.60
9116;DHT22;4593;53.652;10.168;2023-03-23T01:59:43;11.00;95.50
9116;DHT22;4593;53.652;10.168;2023-03-23T02:02:11;10.90;95.60
9116;DHT22;4593;53.652;10.168;2023-03-23T02:04:39;10.90;95.90
9116;DHT22;4593;53.652;10.168;2023-03-23T02:07:07;11.00;95.80
9116;DHT22;4593;53.652;10.168;2023-03-23T02:09:32;11.00;95.90
9116;DHT22;4593;53.652;10.168;2023-03-23T02:11:58;10.90;95.80
9116;DHT22;4593;53.652;10.168;2023-03-23T02:14:26;10.90;95.80
9116;DHT22;4593;53.652;10.168;2023-03-23T02:28:16;10.90;96.20
9116;DHT22;4593;53.652;10.168;2023-03-23T02:30:58;10.90;96.40
9116;DHT22;4593;53.652;10.168;2023-03-23T02:36:36;10.80;96.70
9116;DHT22;4593;53.652;10.168;2023-03-23T02:39:08;10.90;96.80
9116;DHT22;4593;53.652;10.168;2023-03-23T02:42:15;10.90;96.80
9116;DHT22;4593;53.652;10.168;2023-03-23T02:44:44;10.90;97.00
9116;DHT22;4593;53.652;10.168;2023-03-23T02:47:24;10.90;96.70
9116;DHT22;4593;53.652;10.168;2023-03-23T02:49:53;10.90;96.70
9116;DHT22;4593;53.652;10.168;2023-03-23T02:52:29;11.00;96.80
9116;DHT22;4593;53.652;10.168;2023-03-23T02:54:57;10.90;96.80
9116;DHT22;4593;53.652;10.168;2023-03-23T02:57:25;11.00;97.10
9116;DHT22;4593;53.652;10.168;2023-03-23T02:59:52;11.00;97.10
9116;DHT22;4593;53.652;10.168;2023-03-23T03:02:34;11.00;97.10
9116;DHT22;4593;53.652;10.168;2023-03-23T03:10:29;11.00;96.90
9116;DHT22;4593;53.652;10.168;2023-03-23T03:18:26;11.00;97.40
9116;DHT22;4593;53.652;10.168;2023-03-23T03:21:01;11.00;97.40
9116;DHT22;4593;53.652;10.168;2023-03-23T03:23:29;11.00;97.30
9116;DHT22;4593;53.652;10.168;2023-03-23T03:25:57;10.90;97.40
9116;DHT22;4593;53.652;10.168;2023-03-23T03:28:25;10.90;97.60
9116;DHT22;4593;53.652;10.168;2023-03-23T03:30:57;11.00;97.70
9116;DHT22;4593;53.652;10.168;2023-03-23T03:33:26;11.00;97.50
9116;DHT22;4593;53.652;10.168;2023-03-23T03:35:57;11.00;97.30
9116;DHT22;4593;53.652;10.168;2023-03-23T03:38:25;11.00;97.20
9116;DHT22;4593;53.652;10.168;2023-03-23T03:40:51;11.00;97.10
9116;DHT22;4593;53.652;10.168;2023-03-23T03:43:17;11.00;97.20
9116;DHT22;4593;53.652;10.168;2023-03-23T03:45:43;11.00;97.30
9116;DHT22;4593;53.652;10.168;2023-03-23T03:48:09;11.00;97.50
9116;DHT22;4593;53.652;10.168;2023-03-23T03:50:35;11.00;97.40
9116;DHT22;4593;53.652;10.168;2023-03-23T03:53:01;11.00;97.40
9116;DHT22;4593;53.652;10.168;2023-03-23T03:55:27;10.90;97.50
9116;DHT22;4593;53.652;10.168;2023-03-23T03:57:56;11.00;97.60
9116;DHT22;4593;53.652;10.168;2023-03-23T04:00:22;11.00;97.30
9116;DHT22;4593;53.652;10.168;2023-03-23T04:02:50;11.10;97.30
9116;DHT22;4593;53.652;10.168;2023-03-23T04:05:20;11.10;96.90
9116;DHT22;4593;53.652;10.168;2023-03-23T04:07:46;11.20;96.70
9116;DHT22;4593;53.652;10.168;2023-03-23T04:10:15;11.10;96.90
9116;DHT22;4593;53.652;10.168;2023-03-23T04:12:41;11.10;97.20
9116;DHT22;4593;53.652;10.168;2023-03-23T04:15:07;11.10;97.20
9116;DHT22;4593;53.652;10.168;2023-03-23T04:17:34;11.10;97.00
9116;DHT22;4593;53.652;10.168;2023-03-23T04:19:59;11.20;96.70
9116;DHT22;4593;53.652;10.168;2023-03-23T04:22:26;11.20;97.00
9116;DHT22;4593;53.652;10.168;2023-03-23T04:25:01;11.20;96.70
9116;DHT22;4593;53.652;10.168;2023-03-23T04:27:31;11.20;96.80
9116;DHT22;4593;53.652;10.168;2023-03-23T04:29:57;11.20;96.60
9116;DHT22;4593;53.652;10.168;2023-03-23T04:32:26;11.20;96.50
9116;DHT22;4593;53.652;10.168;2023-03-23T04:34:55;11.20;96.30
9116;DHT22;4593;53.652;10.168;2023-03-23T04:37:22;11.30;96.40
9116;DHT22;4593;53.652;10.168;2023-03-23T04:39:52;11.30;96.30
9116;DHT22;4593;53.652;10.168;2023-03-23T04:42:26;11.30;96.30
9116;DHT22;4593;53.652;10.168;2023-03-23T04:44:52;11.30;96.30
9116;DHT22;4593;53.652;10.168;2023-03-23T04:47:19;11.30;96.10
9116;DHT22;4593;53.652;10.168;2023-03-23T04:49:45;11.30;96.00
9116;DHT22;4593;53.652;10.168;2023-03-23T04:52:11;11.20;96.10
9116;DHT22;4593;53.652;10.168;2023-03-23T04:54:37;11.20;96.10
9116;DHT22;4593;53.652;10.168;2023-03-23T04:57:03;11.20;96.40
9116;DHT22;4593;53.652;10.168;2023-03-23T04:59:29;11.10;96.20
9116;DHT22;4593;53.652;10.168;2023-03-23T05:01:56;11.20;96.40
9116;DHT22;4593;53.652;10.168;2023-03-23T05:04:23;11.10;96.20
9116;DHT22;4593;53.652;10.168;2023-03-23T05:06:51;11.10;96.30
9116;DHT22;4593;53.652;10.168;2023-03-23T05:09:17;11.10;96.60
9116;DHT22;4593;53.652;10.168;2023-03-23T05:11:42;11.10;96.40
9116;DHT22;4593;53.652;10.168;2023-03-23T05:14:08;11.00;96.60
9116;DHT22;4593;53.652;10.168;2023-03-23T05:16:35;11.00;96.80
9116;DHT22;4593;53.652;10.168;2023-03-23T05:19:02;11.00;96.60
9116;DHT22;4593;53.652;10.168;2023-03-23T05:21:27;11.00;96.80
9116;DHT22;4593;53.652;10.168;2023-03-23T05:23:53;11.00;96.70
9116;DHT22;4593;53.652;10.168;2023-03-23T05:26:23;11.00;96.00
9116;DHT22;4593;53.652;10.168;2023-03-23T05:28:56;11.10;96.00
9116;DHT22;4593;53.652;10.168;2023-03-23T05:31:22;11.10;96.00
9116;DHT22;4593;53.652;10.168;2023-03-23T05:33:50;11.10;96.20
9116;DHT22;4593;53.652;10.168;2023-03-23T05:36:16;11.10;96.00
9116;DHT22;4593;53.652;10.168;2023-03-23T05:38:42;11.20;96.00
9116;DHT22;4593;53.652;10.168;2023-03-23T05:41:11;11.20;95.70
9116;DHT22;4593;53.652;10.168;2023-03-23T05:43:37;11.20;95.50
9116;DHT22;4593;53.652;10.168;2023-03-23T05:46:03;11.30;95.50
9116;DHT22;4593;53.652;10.168;2023-03-23T05:48:29;11.30;95.40
9116;DHT22;4593;53.652;10.168;2023-03-23T05:50:54;11.30;95.30
9116;DHT22;4593;53.652;10.168;2023-03-23T05:53:21;11.40;94.90
9116;DHT22;4593;53.652;10.168;2023-03-23T05:55:46;11.40;94.90
9116;DHT22;4593;53.652;10.168;2023-03-23T05:58:12;11.40;94.60
9116;DHT22;4593;53.652;10.168;2023-03-23T06:00:38;11.40;94.70
9116;DHT22;4593;53.652;10.168;2023-03-23T06:03:04;11.40;94.50
9116;DHT22;4593;53.652;10.168;2023-03-23T06:05:31;11.30;94.30
9116;DHT22;4593;53.652;10.168;2023-03-23T06:07:58;11.20;94.50
9116;DHT22;4593;53.652;10.168;2023-03-23T06:10:25;11.20;94.80
9116;DHT22;4593;53.652;10.168;2023-03-23T06:12:50;11.10;94.90
9116;DHT22;4593;53.652;10.168;2023-03-23T06:15:18;11.00;95.20
9116;DHT22;4593;53.652;10.168;2023-03-23T06:17:43;11.00;95.10
9116;DHT22;4593;53.652;10.168;2023-03-23T06:20:10;11.00;95.20
9116;DHT22;4593;53.652;10.168;2023-03-23T06:22:39;11.00;95.30
9116;DHT22;4593;53.652;10.168;2023-03-23T06:25:09;11.00;95.20
9116;DHT22;4593;53.652;10.168;2023-03-23T06:27:37;11.00;95.20
9116;DHT22;4593;53.652;10.168;2023-03-23T06:30:04;10.90;95.30
9116;DHT22;4593;53.652;10.168;2023-03-23T06:32:30;10.90;95.50
9116;DHT22;4593;53.652;10.168;2023-03-23T06:34:57;11.10;95.60
9116;DHT22;4593;53.652;10.168;2023-03-23T06:37:23;11.10;95.00
9116;DHT22;4593;53.652;10.168;2023-03-23T06:39:50;11.20;94.70
9116;DHT22;4593;53.652;10.168;2023-03-23T06:42:15;11.30;94.80
9116;DHT22;4593;53.652;10.168;2023-03-23T06:44:42;11.40;94.40
9116;DHT22;4593;53.652;10.168;2023-03-23T06:47:07;11.60;93.70
9116;DHT22;4593;53.652;10.168;2023-03-23T06:49:34;11.60;93.00
9116;DHT22;4593;53.652;10.168;2023-03-23T06:51:59;11.70;92.80
9116;DHT22;4593;53.652;10.168;2023-03-23T06:54:29;12.00;92.70
9116;DHT22;4593;53.652;10.168;2023-03-23T06:56:55;12.30;91.90
9116;DHT22;4593;53.652;10.168;2023-03-23T06:59:21;12.40;90.80
9116;DHT22;4593;53.652;10.168;2023-03-23T07:01:46;12.50;90.10
9116;DHT22;4593;53.652;10.168;2023-03-23T07:04:14;12.40;89.30
9116;DHT22;4593;53.652;10.168;2023-03-23T07:06:40;12.40;89.30
9116;DHT22;4593;53.652;10.168;2023-03-23T07:09:05;12.50;89.30
9116;DHT22;4593;53.652;10.168;2023-03-23T07:11:32;12.50;88.80
9116;DHT22;4593;53.652;10.168;2023-03-23T07:13:58;12.50;88.80
9116;DHT22;4593;53.652;10.168;2023-03-23T07:16:23;12.50;88.50
9116;DHT22;4593;53.652;10.168;2023-03-23T07:18:49;12.50;88.30
9116;DHT22;4593;53.652;10.168;2023-03-23T07:21:15;12.50;88.50
9116;DHT22;4593;53.652;10.168;2023-03-23T07:23:41;12.60;88.20
9116;DHT22;4593;53.652;10.168;2023-03-23T07:26:07;12.60;87.20
9116;DHT22;4593;53.652;10.168;2023-03-23T07:28:33;12.70;87.00
9116;DHT22;4593;53.652;10.168;2023-03-23T07:30:58;12.60;86.40
9116;DHT22;4593;53.652;10.168;2023-03-23T07:33:24;12.80;86.40
9116;DHT22;4593;53.652;10.168;2023-03-23T07:35:49;12.90;85.90
9116;DHT22;4593;53.652;10.168;2023-03-23T07:38:15;12.90;85.40
9116;DHT22;4593;53.652;10.168;2023-03-23T07:40:41;12.90;85.50
9116;DHT22;4593;53.652;10.168;2023-03-23T07:43:07;13.10;85.20
9116;DHT22;4593;53.652;10.168;2023-03-23T07:45:33;13.40;83.90
9116;DHT22;4593;53.652;10.168;2023-03-23T07:47:59;13.40;82.50
9116;DHT22;4593;53.652;10.168;2023-03-23T07:50:25;13.30;81.40
9116;DHT22;4593;53.652;10.168;2023-03-23T07:52:54;13.10;81.70
9116;DHT22;4593;53.652;10.168;2023-03-23T07:55:20;12.90;82.40
9116;DHT22;4593;53.652;10.168;2023-03-23T07:57:47;12.80;83.90
9116;DHT22;4593;53.652;10.168;2023-03-23T08:00:15;12.70;84.40
9116;DHT22;4593;53.652;10.168;2023-03-23T08:02:42;12.50;85.40
9116;DHT22;4593;53.652;10.168;2023-03-23T08:05:08;12.40;86.60
9116;DHT22;4593;53.652;10.168;2023-03-23T08:07:34;12.30;87.30
9116;DHT22;4593;53.652;10.168;2023-03-23T08:10:00;12.10;88.90
9116;DHT22;4593;53.652;10.168;2023-03-23T08:12:26;12.00;89.70
9116;DHT22;4593;53.652;10.168;2023-03-23T08:14:52;11.90;90.30
9116;DHT22;4593;53.652;10.168;2023-03-23T08:17:19;11.90;91.10
9116;DHT22;4593;53.652;10.168;2023-03-23T08:19:45;11.50;93.70
9116;DHT22;4593;53.652;10.168;2023-03-23T08:22:11;11.30;95.00
9116;DHT22;4593;53.652;10.168;2023-03-23T08:24:37;10.90;93.30
9116;DHT22;4593;53.652;10.168;2023-03-23T08:27:03;10.70;93.70
9116;DHT22;4593;53.652;10.168;2023-03-23T08:29:29;10.50;94.20
9116;DHT22;4593;53.652;10.168;2023-03-23T08:31:56;10.40;94.70
9116;DHT22;4593;53.652;10.168;2023-03-23T08:34:22;10.20;95.60
9116;DHT22;4593;53.652;10.168;2023-03-23T08:36:48;10.20;96.30
9116;DHT22;4593;53.652;10.168;2023-03-23T08:39:14;10.10;97.10
9116;DHT22;4593;53.652;10.168;2023-03-23T08:41:43;10.20;97.00
9116;DHT22;4593;53.652;10.168;2023-03-23T08:44:10;10.30;96.90
9116;DHT22;4593;53.652;10.168;2023-03-23T08:46:35;10.30;96.60
9116;DHT22;4593;53.652;10.168;2023-03-23T08:49:01;10.30;96.30
9116;DHT22;4593;53.652;10.168;2023-03-23T08:51:27;10.40;95.80
9116;DHT22;4593;53.652;10.168;2023-03-23T08:53:53;10.50;95.40
9116;DHT22;4593;53.652;10.168;2023-03-23T08:56:20;10.60;95.60
9116;DHT22;4593;53.652;10.168;2023-03-23T08:58:45;10.70;96.00
9116;DHT22;4593;53.652;10.168;2023-03-23T09:01:11;11.10;95.70
9116;DHT22;4593;53.652;10.168;2023-03-23T09:03:37;11.50;95.30
9116;DHT22;4593;53.652;10.168;2023-03-23T09:06:06;11.80;93.50
9116;DHT22;4593;53.652;10.168;2023-03-23T09:08:32;12.00;92.60
9116;DHT22;4593;53.652;10.168;2023-03-23T09:10:59;12.10;92.50
9116;DHT22;4593;53.652;10.168;2023-03-23T09:13:25;12.40;92.10
9116;DHT22;4593;53.652;10.168;2023-03-23T09:15:51;12.50;90.50
9116;DHT22;4593;53.652;10.168;2023-03-23T09:18:17;12.50;90.30
9116;DHT22;4593;53.652;10.168;2023-03-23T09:20:44;12.60;90.50
9116;DHT22;4593;53.652;10.168;2023-03-23T09:23:09;12.50;89.10
9116;DHT22;4593;53.652;10.168;2023-03-23T09:25:35;12.40;89.80
9116;DHT22;4593;53.652;10.168;2023-03-23T09:28:01;12.40;90.10
9116;DHT22;4593;53.652;10.168;2023-03-23T09:30:30;12.20;89.50
9116;DHT22;4593;53.652;10.168;2023-03-23T09:32:59;12.20;89.80
9116;DHT22;4593;53.652;10.168;2023-03-23T09:35:26;12.40;89.60
9116;DHT22;4593;53.652;10.168;2023-03-23T09:37:54;12.50;89.00
9116;DHT22;4593;53.652;10.168;2023-03-23T09:40:25;12.70;88.40
9116;DHT22;4593;53.652;10.168;2023-03-23T09:43:03;12.80;87.40
9116;DHT22;4593;53.652;10.168;2023-03-23T09:48:32;12.80;86.70
9116;DHT22;4593;53.652;10.168;2023-03-23T09:53:45;12.50;85.70
9116;DHT22;4593;53.652;10.168;2023-03-23T09:56:14;12.40;86.40
9116;DHT22;4593;53.652;10.168;2023-03-23T09:58:55;12.50;87.00
9116;DHT22;4593;53.652;10.168;2023-03-23T10:01:51;12.70;85.30
9116;DHT22;4593;53.652;10.168;2023-03-23T10:04:55;12.70;84.20
9116;DHT22;4593;53.652;10.168;2023-03-23T10:07:22;12.80;84.10
9116;DHT22;4593;53.652;10.168;2023-03-23T10:09:52;13.10;83.10
9116;DHT22;4593;53.652;10.168;2023-03-23T10:12:30;13.30;82.90
9116;DHT22;4593;53.652;10.168;2023-03-23T10:17:42;13.40;81.30
9116;DHT22;4593;53.652;10.168;2023-03-23T10:22:53;13.50;80.80
9116;DHT22;4593;53.652;10.168;2023-03-23T10:25:24;13.50;81.20
9116;DHT22;4593;53.652;10.168;2023-03-23T10:28:10;13.50;80.30
9116;DHT22;4593;53.652;10.168;2023-03-23T10:30:42;13.50;78.80
9116;DHT22;4593;53.652;10.168;2023-03-23T10:35:53;13.70;79.00
9116;DHT22;4593;53.652;10.168;2023-03-23T10:38:29;13.90;77.90
9116;DHT22;4593;53.652;10.168;2023-03-23T10:41:00;14.10;77.00
9116;DHT22;4593;53.652;10.168;2023-03-23T10:43:27;14.20;75.90
9116;DHT22;4593;53.652;10.168;2023-03-23T10:46:00;14.40;75.80
9116;DHT22;4593;53.652;10.168;2023-03-23T10:48:37;14.90;75.20
9116;DHT22;4593;53.652;10.168;2023-03-23T10:51:06;14.90;71.80
9116;DHT22;4593;53.652;10.168;2023-03-23T10:53:42;14.90;70.90
9116;DHT22;4593;53.652;10.168;2023-03-23T10:58:49;14.70;71.10
9116;DHT22;4593;53.652;10.168;2023-03-23T11:01:18;14.60;72.80
9116;DHT22;4593;53.652;10.168;2023-03-23T11:03:47;14.70;73.20
9116;DHT22;4593;53.652;10.168;2023-03-23T11:06:27;14.70;71.40
9116;DHT22;4593;53.652;10.168;2023-03-23T11:09:02;14.70;71.80
9116;DHT22;4593;53.652;10.168;2023-03-23T11:11:31;14.50;71.60
9116;DHT22;4593;53.652;10.168;2023-03-23T11:14:00;14.70;71.70
9116;DHT22;4593;53.652;10.168;2023-03-23T11:16:29;14.70;71.80
9116;DHT22;4593;53.652;10.168;2023-03-23T11:18:58;14.80;72.60
9116;DHT22;4593;53.652;10.168;2023-03-23T11:21:24;15.00;72.50
9116;DHT22;4593;53.652;10.168;2023-03-23T11:23:57;15.20;71.80
9116;DHT22;4593;53.652;10.168;2023-03-23T11:26:32;15.30;70.80
9116;DHT22;4593;53.652;10.168;2023-03-23T11:31:49;15.40;68.80
9116;DHT22;4593;53.652;10.168;2023-03-23T11:39:26;15.10;64.80
9116;DHT22;4593;53.652;10.168;2023-03-23T11:41:54;15.10;66.50
9116;DHT22;4593;53.652;10.168;2023-03-23T11:44:22;15.30;67.20
9116;DHT22;4593;53.652;10.168;2023-03-23T11:49:50;15.50;64.40
9116;DHT22;4593;53.652;10.168;2023-03-23T11:52:50;15.60;63.90
9116;DHT22;4593;53.652;10.168;2023-03-23T11:55:30;15.50;63.10
9116;DHT22;4593;53.652;10.168;2023-03-23T11:58:07;15.40;62.60
9116;DHT22;4593;53.652;10.168;2023-03-23T12:00:35;15.60;62.60
9116;DHT22;4593;53.652;10.168;2023-03-23T12:03:09;15.90;63.20
9116;DHT22;4593;53.652;10.168;2023-03-23T12:05:57;15.80;63.10
9116;DHT22;4593;53.652;10.168;2023-03-23T12:08:48;15.50;61.50
9116;DHT22;4593;53.652;10.168;2023-03-23T12:11:37;15.00;63.20
9116;DHT22;4593;53.652;10.168;2023-03-23T12:17:27;14.90;67.10
9116;DHT22;4593;53.652;10.168;2023-03-23T12:20:00;14.60;68.80
9116;DHT22;4593;53.652;10.168;2023-03-23T12:28:39;14.60;72.50
9116;DHT22;4593;53.652;10.168;2023-03-23T12:31:16;14.80;72.90
9116;DHT22;4593;53.652;10.168;2023-03-23T12:47:47;14.60;74.40
9116;DHT22;4593;53.652;10.168;2023-03-23T12:53:08;15.00;74.10
9116;DHT22;4593;53.652;10.168;2023-03-23T12:55:44;15.20;74.10
9116;DHT22;4593;53.652;10.168;2023-03-23T12:58:28;15.40;72.60
9116;DHT22;4593;53.652;10.168;2023-03-23T13:04:16;15.30;71.30
9116;DHT22;4593;53.652;10.168;2023-03-23T13:06:45;15.10;71.20
9116;DHT22;4593;53.652;10.168;2023-03-23T13:11:54;14.60;73.80
9116;DHT22;4593;53.652;10.168;2023-03-23T13:22:59;16.80;68.80
9116;DHT22;4593;53.652;10.168;2023-03-23T13:25:56;16.60;67.10
9116;DHT22;4593;53.652;10.168;2023-03-23T13:33:36;16.30;68.40
9116;DHT22;4593;53.652;10.168;2023-03-23T13:36:10;16.80;66.70
9116;DHT22;4593;53.652;10.168;2023-03-23T13:38:37;16.80;65.20
9116;DHT22;4593;53.652;10.168;2023-03-23T13:41:10;16.90;65.40
9116;DHT22;4593;53.652;10.168;2023-03-23T13:43:37;17.00;64.00
9116;DHT22;4593;53.652;10.168;2023-03-23T13:49:44;16.40;64.10
9116;DHT22;4593;53.652;10.168;2023-03-23T13:51:36;16.10;65.10
9116;DHT22;4593;53.652;10.168;2023-03-23T13:57:02;15.40;65.10
9116;DHT22;4593;53.652;10.168;2023-03-23T14:01:55;14.90;67.70
9116;DHT22;4593;53.652;10.168;2023-03-23T14:04:23;14.70;68.30
9116;DHT22;4593;53.652;10.168;2023-03-23T14:06:57;14.50;69.30
9116;DHT22;4593;53.652;10.168;2023-03-23T14:09:32;13.80;69.20
9116;DHT22;4593;53.652;10.168;2023-03-23T14:12:02;12.30;75.30
9116;DHT22;4593;53.652;10.168;2023-03-23T14:14:39;11.10;81.90
9116;DHT22;4593;53.652;10.168;2023-03-23T14:17:26;10.50;84.40
9116;DHT22;4593;53.652;10.168;2023-03-23T14:19:55;10.30;86.80
9116;DHT22;4593;53.652;10.168;2023-03-23T14:22:23;10.20;88.90
9116;DHT22;4593;53.652;10.168;2023-03-23T14:24:50;10.10;89.10
9116;DHT22;4593;53.652;10.168;2023-03-23T14:27:18;10.00;90.00
9116;DHT22;4593;53.652;10.168;2023-03-23T14:29:45;9.90;90.90
9116;DHT22;4593;53.652;10.168;2023-03-23T14:32:19;9.90;91.80
9116;DHT22;4593;53.652;10.168;2023-03-23T14:34:51;10.20;92.70
9116;DHT22;4593;53.652;10.168;2023-03-23T14:37:17;10.50;92.30
9116;DHT22;4593;53.652;10.168;2023-03-23T14:39:54;10.70;92.10
9116;DHT22;4593;53.652;10.168;2023-03-23T14:42:28;11.00;91.70
9116;DHT22;4593;53.652;10.168;2023-03-23T14:44:54;11.10;91.60
9116;DHT22;4593;53.652;10.168;2023-03-23T14:47:44;11.20;91.60
9116;DHT22;4593;53.652;10.168;2023-03-23T14:53:00;11.10;91.50
9116;DHT22;4593;53.652;10.168;2023-03-23T14:55:27;11.00;92.50
9116;DHT22;4593;53.652;10.168;2023-03-23T14:58:06;11.00;92.90
9116;DHT22;4593;53.652;10.168;2023-03-23T15:00:39;11.00;93.00
9116;DHT22;4593;53.652;10.168;2023-03-23T15:03:11;11.00;93.30
9116;DHT22;4593;53.652;10.168;2023-03-23T15:05:42;11.10;93.60
9116;DHT22;4593;53.652;10.168;2023-03-23T15:08:27;11.10;93.00
9116;DHT22;4593;53.652;10.168;2023-03-23T15:11:11;11.00;93.20
9116;DHT22;4593;53.652;10.168;2023-03-23T15:13:41;11.10;92.70
9116;DHT22;4593;53.652;10.168;2023-03-23T15:16:29;11.00;92.10
9116;DHT22;4593;53.652;10.168;2023-03-23T15:18:58;11.00;92.40
9116;DHT22;4593;53.652;10.168;2023-03-23T15:24:26;11.10;91.90
9116;DHT22;4593;53.652;10.168;2023-03-23T15:26:53;11.10;91.80
9116;DHT22;4593;53.652;10.168;2023-03-23T15:29:21;11.10;91.20
9116;DHT22;4593;53.652;10.168;2023-03-23T15:31:51;11.10;90.90
9116;DHT22;4593;53.652;10.168;2023-03-23T15:34:33;11.20;90.90
9116;DHT22;4593;53.652;10.168;2023-03-23T15:37:13;11.40;90.30
9116;DHT22;4593;53.652;10.168;2023-03-23T15:39:44;11.60;89.70
9116;DHT22;4593;53.652;10.168;2023-03-23T15:42:21;11.70;89.40
9116;DHT22;4593;53.652;10.168;2023-03-23T15:44:56;11.80;89.30
9116;DHT22;4593;53.652;10.168;2023-03-23T15:47:22;11.90;89.40
9116;DHT22;4593;53.652;10.168;2023-03-23T15:50:03;11.90;89.00
9116;DHT22;4593;53.652;10.168;2023-03-23T15:52:30;11.90;89.20
9116;DHT22;4593;53.652;10.168;2023-03-23T15:54:55;11.90;89.40
9116;DHT22;4593;53.652;10.168;2023-03-23T15:57:21;11.80;89.70
9116;DHT22;4593;53.652;10.168;2023-03-23T15:59:47;11.80;90.20
9116;DHT22;4593;53.652;10.168;2023-03-23T16:02:20;11.80;90.30
9116;DHT22;4593;53.652;10.168;2023-03-23T16:04:47;11.70;90.40
9116;DHT22;4593;53.652;10.168;2023-03-23T16:07:13;11.70;90.70
9116;DHT22;4593;53.652;10.168;2023-03-23T16:09:39;11.60;90.60
9116;DHT22;4593;53.652;10.168;2023-03-23T16:12:10;11.50;90.60
9116;DHT22;4593;53.652;10.168;2023-03-23T16:14:38;11.40;91.40
9116;DHT22;4593;53.652;10.168;2023-03-23T16:17:04;11.40;91.60
9116;DHT22;4593;53.652;10.168;2023-03-23T16:19:29;11.40;92.10
9116;DHT22;4593;53.652;10.168;2023-03-23T16:21:56;11.40;91.90
9116;DHT22;4593;53.652;10.168;2023-03-23T16:24:21;11.40;92.40
9116;DHT22;4593;53.652;10.168;2023-03-23T16:26:47;11.40;92.70
9116;DHT22;4593;53.652;10.168;2023-03-23T16:29:14;11.40;92.80
9116;DHT22;4593;53.652;10.168;2023-03-23T16:31:40;11.40;93.00
9116;DHT22;4593;53.652;10.168;2023-03-23T16:34:07;11.40;92.80
9116;DHT22;4593;53.652;10.168;2023-03-23T16:36:33;11.50;91.90
9116;DHT22;4593;53.652;10.168;2023-03-23T16:38:59;11.40;91.70
9116;DHT22;4593;53.652;10.168;2023-03-23T16:41:24;11.40;91.70
9116;DHT22;4593;53.652;10.168;2023-03-23T16:43:50;11.40;91.50
9116;DHT22;4593;53.652;10.168;2023-03-23T16:46:16;11.30;91.30
9116;DHT22;4593;53.652;10.168;2023-03-23T16:48:42;11.20;91.80
9116;DHT22;4593;53.652;10.168;2023-03-23T16:51:08;11.10;92.00
9116;DHT22;4593;53.652;10.168;2023-03-23T16:53:33;11.00;92.00
9116;DHT22;4593;53.652;10.168;2023-03-23T16:56:00;10.90;92.20
9116;DHT22;4593;53.652;10.168;2023-03-23T16:58:26;10.90;92.30
9116;DHT22;4593;53.652;10.168;2023-03-23T17:00:52;10.80;92.70
9116;DHT22;4593;53.652;10.168;2023-03-23T17:03:19;10.80;92.80
9116;DHT22;4593;53.652;10.168;2023-03-23T17:05:47;10.70;92.20
9116;DHT22;4593;53.652;10.168;2023-03-23T17:08:13;10.50;93.20
9116;DHT22;4593;53.652;10.168;2023-03-23T17:10:40;10.40;93.60
9116;DHT22;4593;53.652;10.168;2023-03-23T17:13:07;10.30;93.80
9116;DHT22;4593;53.652;10.168;2023-03-23T17:15:36;10.20;94.30
9116;DHT22;4593;53.652;10.168;2023-03-23T17:18:02;10.20;94.70
9116;DHT22;4593;53.652;10.168;2023-03-23T17:20:27;10.30;94.90
9116;DHT22;4593;53.652;10.168;2023-03-23T17:22:53;10.30;94.80
9116;DHT22;4593;53.652;10.168;2023-03-23T17:25:19;10.40;94.70
9116;DHT22;4593;53.652;10.168;2023-03-23T17:27:44;10.40;94.80
9116;DHT22;4593;53.652;10.168;2023-03-23T17:30:12;10.40;94.60
9116;DHT22;4593;53.652;10.168;2023-03-23T17:32:38;10.50;94.60
9116;DHT22;4593;53.652;10.168;2023-03-23T17:35:04;10.50;95.30
9116;DHT22;4593;53.652;10.168;2023-03-23T17:37:31;10.50;95.50
9116;DHT22;4593;53.652;10.168;2023-03-23T17:39:56;10.50;95.20
9116;DHT22;4593;53.652;10.168;2023-03-23T17:42:22;10.50;95.20
9116;DHT22;4593;53.652;10.168;2023-03-23T17:44:48;10.40;95.30
9116;DHT22;4593;53.652;10.168;2023-03-23T17:47:14;10.30;95.30
9116;DHT22;4593;53.652;10.168;2023-03-23T17:49:40;10.20;95.60
9116;DHT22;4593;53.652;10.168;2023-03-23T17:52:05;10.00;95.70
9116;DHT22;4593;53.652;10.168;2023-03-23T17:54:31;10.00;96.00